createdAt,value
2018-12-25T03:47:53.060Z,5.20
2018-12-25T03:50:33.461Z,5.10
2018-12-25T03:53:14.081Z,5.20
2018-12-25T03:55:55.080Z,5.30
2018-12-25T03:58:35.873Z,5.50
2018-12-25T04:01:16.863Z,5.50
2018-12-25T04:03:57.440Z,5.60
2018-12-25T04:06:38.630Z,5.60
2018-12-25T04:09:19.498Z,5.70
2018-12-25T04:12:00.742Z,5.80
2018-12-25T04:14:41.212Z,5.70
2018-12-25T04:17:22.060Z,5.80
2018-12-25T04:20:03.092Z,5.80
2018-12-25T04:22:44.024Z,5.70
2018-12-25T04:25:25.104Z,5.90
2018-12-25T04:28:05.944Z,5.90
2018-12-25T04:30:46.595Z,5.90
2018-12-25T04:33:27.449Z,6.00
2018-12-25T04:36:08.032Z,5.90
2018-12-25T04:38:48.880Z,5.90
2018-12-25T04:41:29.499Z,5.80
2018-12-25T04:44:10.453Z,5.80
2018-12-25T04:46:51.080Z,5.80
2018-12-25T04:49:31.892Z,5.80
2018-12-25T04:52:12.876Z,5.80
2018-12-25T04:54:53.903Z,5.70
2018-12-25T04:57:35.176Z,5.70
2018-12-25T05:00:15.415Z,5.60
2018-12-25T05:02:55.958Z,5.60
2018-12-25T05:05:36.883Z,5.50
2018-12-25T05:08:17.836Z,5.60
2018-12-25T05:10:58.324Z,5.60
2018-12-25T05:13:38.734Z,5.50
2018-12-25T05:16:19.016Z,5.50
2018-12-25T05:18:59.902Z,5.60
2018-12-25T05:21:40.493Z,5.60
2018-12-25T05:24:21.337Z,5.60
2018-12-25T05:27:02.204Z,5.70
2018-12-25T05:29:44.690Z,5.70
2018-12-25T05:32:25.978Z,5.70
2018-12-25T05:35:06.417Z,5.80
2018-12-25T05:37:47.380Z,5.80
2018-12-25T05:40:28.363Z,5.70
2018-12-25T05:43:08.719Z,5.70
2018-12-25T05:45:49.344Z,5.70
2018-12-25T05:48:30.184Z,5.60
2018-12-25T05:51:10.791Z,5.50
2018-12-25T05:53:51.455Z,5.50
2018-12-25T05:56:32.340Z,5.40
2018-12-25T05:59:13.747Z,5.50
2018-12-25T06:01:54.554Z,5.50
2018-12-25T06:04:34.863Z,5.40
2018-12-25T06:07:15.484Z,5.50
2018-12-25T06:13:04.694Z,5.50
2018-12-25T06:15:45.603Z,5.50
2018-12-25T06:18:26.406Z,5.60
2018-12-25T06:21:07.356Z,5.60
2018-12-25T06:23:48.157Z,5.60
2018-12-25T06:26:28.813Z,5.60
2018-12-25T06:29:09.449Z,5.60
2018-12-25T06:31:50.523Z,5.60
2018-12-25T06:34:31.774Z,5.60
2018-12-25T06:37:12.173Z,5.60
2018-12-25T06:39:53.157Z,5.60
2018-12-25T06:42:34.174Z,5.60
2018-12-25T06:45:15.155Z,5.70
2018-12-25T06:47:55.520Z,5.60
2018-12-25T06:50:36.637Z,5.70
2018-12-25T06:53:17.261Z,5.70
2018-12-25T06:55:58.152Z,5.70
2018-12-25T06:58:38.747Z,5.70
2018-12-25T07:01:19.612Z,5.80
2018-12-25T07:03:59.828Z,5.80
2018-12-25T07:06:40.389Z,5.70
2018-12-25T07:09:21.451Z,5.80
2018-12-25T07:12:02.356Z,5.70
2018-12-25T07:14:42.986Z,5.60
2018-12-25T07:17:23.625Z,5.70
2018-12-25T07:20:04.006Z,5.70
2018-12-25T07:22:44.646Z,5.70
2018-12-25T07:25:25.539Z,5.60
2018-12-25T07:28:06.595Z,5.70
2018-12-25T07:30:47.119Z,5.60
2018-12-25T07:33:28.368Z,5.60
2018-12-25T07:36:09.505Z,5.60
2018-12-25T07:38:50.263Z,5.60
2018-12-25T07:41:32.991Z,5.60
2018-12-25T07:44:13.529Z,5.60
2018-12-25T07:46:54.826Z,5.70
2018-12-25T07:49:35.557Z,5.70
2018-12-25T07:52:16.609Z,5.70
2018-12-25T07:54:57.493Z,5.70
2018-12-25T07:57:38.497Z,5.60
2018-12-25T08:00:19.599Z,5.70
2018-12-25T08:03:00.818Z,5.70
2018-12-25T08:05:41.478Z,5.80
2018-12-25T08:08:22.155Z,5.80
2018-12-25T08:11:03.268Z,5.90
2018-12-25T08:13:43.803Z,6.00
2018-12-25T08:16:24.662Z,6.00
2018-12-25T08:19:05.986Z,6.00
2018-12-25T08:21:46.472Z,6.00
2018-12-25T08:24:27.321Z,6.00
2018-12-25T08:27:08.085Z,6.00
2018-12-25T08:29:49.355Z,6.00
2018-12-25T08:32:29.937Z,6.10
2018-12-25T08:35:10.425Z,6.00
2018-12-25T08:37:51.603Z,6.10
2018-12-25T08:40:32.567Z,6.10
2018-12-25T08:43:13.382Z,6.20
2018-12-25T08:45:54.563Z,6.20
2018-12-25T08:48:35.686Z,6.20
2018-12-25T08:51:16.613Z,6.20
2018-12-25T08:53:57.139Z,6.20
2018-12-25T08:56:38.104Z,6.20
2018-12-25T08:59:19.057Z,6.20
2018-12-25T09:01:59.854Z,6.20
2018-12-25T09:04:40.288Z,6.10
2018-12-25T09:07:20.862Z,6.10
2018-12-25T09:10:01.434Z,6.10
2018-12-25T09:12:42.106Z,6.10
2018-12-25T09:15:22.854Z,6.30
2018-12-25T09:18:03.658Z,6.30
2018-12-25T09:20:44.741Z,6.30
2018-12-25T09:23:25.447Z,6.30
2018-12-25T09:26:06.231Z,6.30
2018-12-25T09:28:47.175Z,6.20
2018-12-25T09:31:27.577Z,6.20
2018-12-25T09:34:08.182Z,6.20
2018-12-25T09:36:49.153Z,6.20
2018-12-25T09:39:29.638Z,6.20
2018-12-25T09:42:10.547Z,6.20
2018-12-25T09:44:51.386Z,6.20
2018-12-25T09:47:32.207Z,6.20
2018-12-25T09:50:12.999Z,6.30
2018-12-25T09:52:54.107Z,6.40
2018-12-25T09:55:34.873Z,6.40
2018-12-25T09:58:15.658Z,6.40
2018-12-25T10:00:56.323Z,6.50
2018-12-25T10:03:37.178Z,6.70
2018-12-25T10:06:18.299Z,6.90
2018-12-25T10:08:58.678Z,7.10
2018-12-25T10:11:44.328Z,7.20
2018-12-25T10:14:22.270Z,7.50
2018-12-25T10:17:02.921Z,7.40
2018-12-25T10:19:43.579Z,7.50
2018-12-25T10:22:24.646Z,7.50
2018-12-25T10:25:05.244Z,7.50
2018-12-25T10:27:46.062Z,7.50
2018-12-25T10:30:27.100Z,7.40
2018-12-25T10:33:08.176Z,7.40
2018-12-25T10:35:48.864Z,7.30
2018-12-25T10:38:29.354Z,7.40
2018-12-25T10:41:10.196Z,7.40
2018-12-25T10:43:50.819Z,7.50
2018-12-25T10:46:31.601Z,7.50
2018-12-25T10:49:12.698Z,7.40
2018-12-25T10:51:53.494Z,7.40
2018-12-25T10:54:34.248Z,7.60
2018-12-25T10:57:15.493Z,7.80
2018-12-25T10:59:56.106Z,7.70
2018-12-25T11:02:36.743Z,7.80
2018-12-25T11:05:18.025Z,7.80
2018-12-25T11:07:58.846Z,7.80
2018-12-25T11:10:39.524Z,7.80
2018-12-25T11:13:20.303Z,7.90
2018-12-25T11:16:02.193Z,7.80
2018-12-25T11:18:49.028Z,7.90
2018-12-25T11:21:25.536Z,7.90
2018-12-25T11:24:06.245Z,8.00
2018-12-25T11:26:47.523Z,8.30
2018-12-25T11:29:27.951Z,8.60
2018-12-25T11:32:08.767Z,8.90
2018-12-25T11:34:49.557Z,9.10
2018-12-25T11:37:30.716Z,9.00
2018-12-25T11:40:11.006Z,8.80
2018-12-25T11:42:51.998Z,8.70
2018-12-25T11:45:33.117Z,8.90
2018-12-25T11:48:13.873Z,9.10
2018-12-25T11:50:54.806Z,9.40
2018-12-25T11:53:36.153Z,9.50
2018-12-25T11:56:16.633Z,9.40
2018-12-25T11:58:57.594Z,9.50
2018-12-25T12:01:38.111Z,9.40
2018-12-25T12:04:18.607Z,9.00
2018-12-25T12:06:59.582Z,8.90
2018-12-25T12:09:40.222Z,8.70
2018-12-25T12:12:21.083Z,8.90
2018-12-25T12:15:01.396Z,9.00
2018-12-25T12:17:42.337Z,9.00
2018-12-25T12:20:22.911Z,9.00
2018-12-25T12:23:04.233Z,9.30
2018-12-25T12:25:45.069Z,9.40
2018-12-25T12:28:25.840Z,9.40
2018-12-25T12:34:26.174Z,9.50
2018-12-25T12:37:06.752Z,9.40
2018-12-25T12:39:47.514Z,9.30
2018-12-25T12:42:28.188Z,9.20
2018-12-25T12:45:09.228Z,9.10
2018-12-25T12:47:49.643Z,9.10
2018-12-25T12:50:30.233Z,9.70
2018-12-25T12:53:11.170Z,10.00
2018-12-25T12:55:52.346Z,9.80
2018-12-25T12:58:32.805Z,9.80
2018-12-25T13:01:13.546Z,10.10
2018-12-25T13:03:54.516Z,10.20
2018-12-25T13:09:54.621Z,10.20
2018-12-25T13:12:35.481Z,10.20
2018-12-25T13:15:16.016Z,10.00
2018-12-25T13:17:57.159Z,9.40
2018-12-25T13:20:37.738Z,9.20
2018-12-25T13:23:16.482Z,9.30
2018-12-25T13:26:04.249Z,9.80
2018-12-25T13:28:52.012Z,10.60
2018-12-25T13:31:39.782Z,11.00
2018-12-25T13:34:27.523Z,11.30
2018-12-25T13:37:15.283Z,11.90
2018-12-25T13:40:03.095Z,12.30
2018-12-25T13:42:50.856Z,13.10
2018-12-25T13:45:38.878Z,13.60
2018-12-25T13:48:26.923Z,13.60
2018-12-25T13:51:14.721Z,13.00
2018-12-25T13:54:02.604Z,12.50
2018-12-25T13:56:50.676Z,12.20
2018-12-25T13:59:31.599Z,11.60
2018-12-25T14:02:12.473Z,11.10
2018-12-25T14:04:53.355Z,10.50
2018-12-25T14:07:34.067Z,10.10
2018-12-25T14:10:14.691Z,9.70
2018-12-25T14:12:55.275Z,9.40
2018-12-25T14:15:35.845Z,9.10
2018-12-25T14:18:16.779Z,8.90
2018-12-25T14:20:57.028Z,8.60
2018-12-25T14:23:38.018Z,8.50
2018-12-25T14:26:18.898Z,8.40
2018-12-25T14:28:59.985Z,8.20
2018-12-25T14:31:40.316Z,8.20
2018-12-25T14:34:21.487Z,8.10
2018-12-25T14:37:02.330Z,8.10
2018-12-25T14:39:42.977Z,8.00
2018-12-25T14:42:23.550Z,8.00
2018-12-25T14:45:04.315Z,7.90
2018-12-25T14:47:44.930Z,8.00
2018-12-25T14:50:25.791Z,7.90
2018-12-25T14:53:06.495Z,7.70
2018-12-25T14:55:47.017Z,7.70
2018-12-25T14:58:28.010Z,7.70
2018-12-25T15:01:09.103Z,7.60
2018-12-25T15:03:49.402Z,7.60
2018-12-25T15:06:30.183Z,7.50
2018-12-25T15:09:11.387Z,7.50
2018-12-25T15:11:51.876Z,7.30
2018-12-25T15:14:32.818Z,7.30
2018-12-25T15:17:13.267Z,7.30
2018-12-25T15:19:54.435Z,7.20
2018-12-25T15:22:35.390Z,7.10
2018-12-25T15:25:16.557Z,7.00
2018-12-25T15:27:57.545Z,6.90
2018-12-25T15:30:38.362Z,6.90
2018-12-25T15:33:19.487Z,6.90
2018-12-25T15:36:00.793Z,6.80
2018-12-25T15:38:41.194Z,6.70
2018-12-25T15:41:20.178Z,6.70
2018-12-25T15:44:07.942Z,6.80
2018-12-25T15:46:55.984Z,6.80
2018-12-25T15:49:44.132Z,6.70
2018-12-25T15:52:25.151Z,6.70
2018-12-25T15:55:06.387Z,6.80
2018-12-25T15:57:47.055Z,6.80
2018-12-25T16:00:28.210Z,6.80
2018-12-25T16:03:08.835Z,6.70
2018-12-25T16:05:49.773Z,6.80
2018-12-25T16:08:30.272Z,6.70
2018-12-25T16:11:11.084Z,6.70
2018-12-25T16:13:52.241Z,6.60
2018-12-25T16:16:32.653Z,6.60
2018-12-25T16:19:13.734Z,6.60
2018-12-25T16:21:54.425Z,6.70
2018-12-25T16:24:35.267Z,6.60
2018-12-25T16:27:15.822Z,6.60
2018-12-25T16:29:57.323Z,6.70
2018-12-25T16:32:39.015Z,6.70
2018-12-25T16:35:19.591Z,6.80
2018-12-25T16:38:00.354Z,6.70
2018-12-25T16:40:41.149Z,6.70
2018-12-25T16:43:21.463Z,6.70
2018-12-25T16:46:02.225Z,6.70
2018-12-25T16:48:43.112Z,6.70
2018-12-25T16:51:24.227Z,6.70
2018-12-25T16:54:05.825Z,6.70
2018-12-25T16:56:46.334Z,6.70
2018-12-25T16:59:26.629Z,6.70
2018-12-25T17:05:15.989Z,6.70
2018-12-25T17:07:57.486Z,6.80
2018-12-25T17:10:38.117Z,6.70
2018-12-25T17:16:24.033Z,6.60
2018-12-25T17:19:04.539Z,6.60
2018-12-25T17:21:45.675Z,6.60
2018-12-25T17:24:26.051Z,6.60
2018-12-25T17:27:06.926Z,6.60
2018-12-25T17:29:47.543Z,6.70
2018-12-25T17:32:28.376Z,6.70
2018-12-25T17:35:09.131Z,6.60
2018-12-25T17:37:49.795Z,6.70
2018-12-25T17:40:30.457Z,6.70
2018-12-25T17:43:11.056Z,6.60
2018-12-25T17:45:52.157Z,6.60
2018-12-25T17:48:32.997Z,6.70
2018-12-25T17:51:14.219Z,6.50
2018-12-25T17:53:55.057Z,6.50
2018-12-25T17:56:37.892Z,6.50
2018-12-25T17:59:18.557Z,6.40
2018-12-25T18:01:59.643Z,6.50
2018-12-25T18:04:40.932Z,6.60
2018-12-25T18:07:21.497Z,6.50
2018-12-25T18:10:02.067Z,6.50
2018-12-25T18:12:42.607Z,6.50
2018-12-25T18:15:23.589Z,6.50
2018-12-25T18:18:04.381Z,6.50
2018-12-25T18:26:58.981Z,6.60
2018-12-25T18:29:39.853Z,6.50
2018-12-25T18:32:20.415Z,6.40
2018-12-25T18:35:01.022Z,6.30
2018-12-25T18:37:42.005Z,6.30
2018-12-25T18:40:22.989Z,6.30
2018-12-25T18:43:03.850Z,6.30
2018-12-25T18:45:44.600Z,6.30
2018-12-25T18:48:25.171Z,6.20
2018-12-25T18:51:06.083Z,6.10
2018-12-25T18:53:45.066Z,6.10
2018-12-25T18:56:32.814Z,6.10
2018-12-25T18:59:20.615Z,6.10
2018-12-25T19:02:08.457Z,6.00
2018-12-25T19:04:56.231Z,6.00
2018-12-25T19:07:43.979Z,6.00
2018-12-25T19:10:31.744Z,5.90
2018-12-25T19:13:19.515Z,6.00
2018-12-25T19:16:07.261Z,6.10
2018-12-25T19:18:55.021Z,6.10
2018-12-25T19:21:42.777Z,6.20
2018-12-25T19:24:36.287Z,6.20
2018-12-25T19:27:20.131Z,6.10
2018-12-25T19:30:28.595Z,6.00
2018-12-25T19:33:16.674Z,6.10
2018-12-25T19:36:04.459Z,6.20
2018-12-25T19:38:52.207Z,6.20
2018-12-25T19:41:40.279Z,6.20
2018-12-25T19:44:28.029Z,6.20
2018-12-25T19:47:15.779Z,6.10
2018-12-25T19:50:03.892Z,6.10
2018-12-25T19:52:51.919Z,6.10
2018-12-25T19:55:39.979Z,6.10
2018-12-25T19:58:27.745Z,6.00
2018-12-25T20:01:15.857Z,6.10
2018-12-25T20:04:24.361Z,6.00
2018-12-25T20:07:31.726Z,5.90
2018-12-25T20:10:40.212Z,6.00
2018-12-25T20:13:47.556Z,6.00
2018-12-25T20:16:54.910Z,6.00
2018-12-25T20:20:03.415Z,5.90
2018-12-25T20:23:11.936Z,5.90
2018-12-25T20:26:19.333Z,5.90
2018-12-25T20:29:28.115Z,6.00
2018-12-25T20:32:35.437Z,6.00
2018-12-25T20:35:42.770Z,5.90
2018-12-25T20:38:49.866Z,5.90
2018-12-25T20:41:56.927Z,5.80
2018-12-25T20:45:04.004Z,5.80
2018-12-25T20:48:12.479Z,5.80
2018-12-25T20:51:19.567Z,5.70
2018-12-25T20:54:00.426Z,5.70
2018-12-25T20:56:41.231Z,5.70
2018-12-25T20:59:22.061Z,5.60
2018-12-25T21:02:02.403Z,5.60
2018-12-25T21:04:42.881Z,5.70
2018-12-25T21:07:23.617Z,5.70
2018-12-25T21:10:04.549Z,5.70
2018-12-25T21:12:45.175Z,5.50
2018-12-25T21:15:25.735Z,5.40
2018-12-25T21:18:06.617Z,5.40
2018-12-25T21:20:46.919Z,5.40
2018-12-25T21:23:53.995Z,5.40
2018-12-25T21:27:01.314Z,5.30
2018-12-25T21:29:49.436Z,5.10
2018-12-25T21:32:37.743Z,5.00
2018-12-25T21:35:25.515Z,4.80
2018-12-25T21:38:13.256Z,4.80
2018-12-25T21:41:01.030Z,4.80
2018-12-25T21:43:48.862Z,4.90
2018-12-25T21:46:37.030Z,4.80
2018-12-25T21:49:25.139Z,4.80
2018-12-25T21:52:33.870Z,4.80
2018-12-25T21:55:18.668Z,4.80
2018-12-25T21:58:02.423Z,4.80
2018-12-25T22:00:50.473Z,4.90
2018-12-25T22:03:38.211Z,4.80
2018-12-25T22:06:26.474Z,4.90
2018-12-25T22:09:14.292Z,4.80
2018-12-25T22:12:02.052Z,4.70
2018-12-25T22:14:50.142Z,4.60
2018-12-25T22:17:57.306Z,4.60
2018-12-25T22:20:45.315Z,4.50
2018-12-25T22:23:33.091Z,4.50
2018-12-25T22:26:20.846Z,4.50
2018-12-25T22:29:08.912Z,4.50
2018-12-25T22:31:56.975Z,4.40
2018-12-25T22:34:45.055Z,4.40
2018-12-25T22:37:32.845Z,4.30
2018-12-25T22:40:21.003Z,4.30
2018-12-25T22:43:08.747Z,4.20
2018-12-25T22:45:56.814Z,4.10
2018-12-25T22:48:44.563Z,4.10
2018-12-25T22:51:32.346Z,4.20
2018-12-25T22:54:20.104Z,4.20
2018-12-25T22:57:00.647Z,4.00
2018-12-25T22:59:41.641Z,3.80
2018-12-25T23:02:22.503Z,3.80
2018-12-25T23:05:03.718Z,3.70
2018-12-25T23:07:44.222Z,3.70
2018-12-25T23:10:25.416Z,3.70
2018-12-25T23:13:06.194Z,3.60
2018-12-25T23:15:46.795Z,3.50
2018-12-25T23:18:27.403Z,3.50
2018-12-25T23:21:08.189Z,3.50
2018-12-25T23:23:48.953Z,3.60
2018-12-25T23:26:29.969Z,3.50
2018-12-25T23:29:10.933Z,3.40
2018-12-25T23:31:52.211Z,3.40
2018-12-25T23:34:33.442Z,3.40
2018-12-25T23:37:13.690Z,3.40
2018-12-25T23:39:54.518Z,3.30
2018-12-25T23:42:35.869Z,3.30
2018-12-25T23:45:16.535Z,3.20
2018-12-25T23:47:57.346Z,3.20
2018-12-25T23:50:38.281Z,3.20
2018-12-25T23:53:19.321Z,3.20
2018-12-25T23:55:59.943Z,3.10
2018-12-25T23:58:40.817Z,3.10
